createdAt,value
2018-12-04T00:01:50.835Z,-1.70
2018-12-04T00:04:22.977Z,-1.70
2018-12-04T00:06:55.311Z,-1.70
2018-12-04T00:09:27.361Z,-1.70
2018-12-04T00:11:59.916Z,-1.70
2018-12-04T00:14:32.015Z,-1.70
2018-12-04T00:17:04.649Z,-1.70
2018-12-04T00:19:36.578Z,-1.60
2018-12-04T00:22:08.814Z,-1.60
2018-12-04T00:24:40.601Z,-1.60
2018-12-04T00:27:12.371Z,-1.60
2018-12-04T00:29:45.394Z,-1.60
2018-12-04T00:32:18.309Z,-1.50
2018-12-04T00:34:49.901Z,-1.50
2018-12-04T00:37:21.887Z,-1.60
2018-12-04T00:39:54.407Z,-1.70
2018-12-04T00:42:26.384Z,-1.70
2018-12-04T00:44:59.219Z,-1.70
2018-12-04T00:47:31.615Z,-1.70
2018-12-04T00:50:04.572Z,-1.70
2018-12-04T00:52:36.246Z,-1.70
2018-12-04T00:55:08.761Z,-1.70
2018-12-04T00:57:40.408Z,-1.70
2018-12-04T01:00:12.943Z,-1.70
2018-12-04T01:02:45.294Z,-1.70
2018-12-04T01:05:17.376Z,-1.70
2018-12-04T01:07:49.301Z,-1.70
2018-12-04T01:10:21.334Z,-1.70
2018-12-04T01:12:53.215Z,-1.70
2018-12-04T01:15:25.026Z,-1.70
2018-12-04T01:17:57.080Z,-1.70
2018-12-04T01:20:29.067Z,-1.60
2018-12-04T01:23:01.010Z,-1.60
2018-12-04T01:25:32.806Z,-1.60
2018-12-04T01:28:04.973Z,-1.70
2018-12-04T01:30:38.215Z,-1.70
2018-12-04T01:33:10.050Z,-1.70
2018-12-04T01:35:41.947Z,-1.60
2018-12-04T01:38:14.417Z,-1.60
2018-12-04T01:40:46.744Z,-1.60
2018-12-04T01:43:18.879Z,-1.50
2018-12-04T01:45:50.731Z,-1.60
2018-12-04T01:48:22.907Z,-1.60
2018-12-04T01:50:55.101Z,-1.50
2018-12-04T01:53:27.119Z,-1.50
2018-12-04T01:55:59.165Z,-1.50
2018-12-04T01:58:31.020Z,-1.50
2018-12-04T02:01:03.100Z,-1.50
2018-12-04T02:03:35.163Z,-1.40
2018-12-04T02:06:06.830Z,-1.40
2018-12-04T02:08:39.062Z,-1.50
2018-12-04T02:11:11.057Z,-1.40
2018-12-04T02:13:43.072Z,-1.40
2018-12-04T02:16:15.213Z,-1.40
2018-12-04T02:18:47.217Z,-1.40
2018-12-04T02:21:19.087Z,-1.40
2018-12-04T02:23:51.214Z,-1.40
2018-12-04T02:26:23.042Z,-1.40
2018-12-04T02:28:55.434Z,-1.40
2018-12-04T02:31:27.455Z,-1.40
2018-12-04T02:34:00.483Z,-1.40
2018-12-04T02:36:32.439Z,-1.40
2018-12-04T02:39:09.195Z,-1.40
2018-12-04T02:41:41.102Z,-1.40
2018-12-04T02:44:12.722Z,-1.40
2018-12-04T02:46:44.951Z,-1.40
2018-12-04T02:49:17.294Z,-1.40
2018-12-04T02:51:49.075Z,-1.40
2018-12-04T02:54:20.866Z,-1.40
2018-12-04T02:56:53.825Z,-1.40
2018-12-04T02:59:25.830Z,-1.50
2018-12-04T03:01:58.248Z,-1.50
2018-12-04T03:04:30.764Z,-1.50
2018-12-04T03:07:04.166Z,-1.50
2018-12-04T03:09:36.129Z,-1.50
2018-12-04T03:12:08.975Z,-1.50
2018-12-04T03:14:40.811Z,-1.50
2018-12-04T03:17:12.786Z,-1.50
2018-12-04T03:19:44.971Z,-1.50
2018-12-04T03:22:17.945Z,-1.50
2018-12-04T03:24:49.712Z,-1.50
2018-12-04T03:27:21.943Z,-1.50
2018-12-04T03:29:53.834Z,-1.50
2018-12-04T03:32:26.272Z,-1.50
2018-12-04T03:34:59.308Z,-1.50
2018-12-04T03:37:31.006Z,-1.60
2018-12-04T03:40:02.741Z,-1.60
2018-12-04T03:42:34.690Z,-1.60
2018-12-04T03:45:07.637Z,-1.60
2018-12-04T03:47:39.567Z,-1.60
2018-12-04T03:50:11.468Z,-1.60
2018-12-04T03:52:43.612Z,-1.60
2018-12-04T03:55:15.582Z,-1.60
2018-12-04T03:57:47.764Z,-1.60
2018-12-04T04:00:19.417Z,-1.60
2018-12-04T04:02:51.454Z,-1.60
2018-12-04T04:05:24.315Z,-1.60
2018-12-04T04:07:56.136Z,-1.60
2018-12-04T04:10:27.940Z,-1.60
2018-12-04T04:12:59.746Z,-1.60
2018-12-04T04:15:31.913Z,-1.60
2018-12-04T04:18:03.719Z,-1.60
2018-12-04T04:20:35.614Z,-1.50
2018-12-04T04:23:07.773Z,-1.40
2018-12-04T04:25:40.001Z,-1.40
2018-12-04T04:28:11.947Z,-1.40
2018-12-04T04:30:44.401Z,-1.30
2018-12-04T04:33:16.710Z,-1.30
2018-12-04T04:35:49.484Z,-1.30
2018-12-04T04:38:22.450Z,-1.30
2018-12-04T04:40:54.392Z,-1.30
2018-12-04T04:43:26.693Z,-1.30
2018-12-04T04:45:59.143Z,-1.30
2018-12-04T04:48:31.648Z,-1.30
2018-12-04T04:51:03.805Z,-1.20
2018-12-04T04:53:36.062Z,-1.20
2018-12-04T04:56:08.424Z,-1.20
2018-12-04T04:58:40.653Z,-1.20
2018-12-04T05:01:12.722Z,-1.20
2018-12-04T05:03:44.981Z,-1.20
2018-12-04T05:06:17.622Z,-1.20
2018-12-04T05:08:49.588Z,-1.20
2018-12-04T05:11:21.947Z,-1.20
2018-12-04T05:13:55.248Z,-1.20
2018-12-04T05:16:27.351Z,-1.20
2018-12-04T05:18:59.375Z,-1.20
2018-12-04T05:21:31.386Z,-1.20
2018-12-04T05:24:03.418Z,-1.20
2018-12-04T05:26:35.284Z,-1.10
2018-12-04T05:29:07.227Z,-1.10
2018-12-04T05:31:39.324Z,-1.10
2018-12-04T05:34:11.867Z,-1.10
2018-12-04T05:36:44.060Z,-1.10
2018-12-04T05:39:16.525Z,-1.00
2018-12-04T05:41:49.082Z,-1.00
2018-12-04T05:44:22.139Z,-1.00
2018-12-04T05:46:54.377Z,-1.00
2018-12-04T05:49:26.782Z,-0.90
2018-12-04T05:51:58.694Z,-0.90
2018-12-04T05:54:30.836Z,-0.90
2018-12-04T05:57:03.055Z,-0.90
2018-12-04T05:59:35.775Z,-0.90
2018-12-04T06:02:07.570Z,-0.90
2018-12-04T06:04:41.203Z,-0.90
2018-12-04T06:07:13.477Z,-0.90
2018-12-04T06:09:45.606Z,-0.80
2018-12-04T06:12:18.078Z,-0.80
2018-12-04T06:14:50.293Z,-0.80
2018-12-04T06:17:22.285Z,-0.80
2018-12-04T06:19:54.155Z,-0.80
2018-12-04T06:22:26.828Z,-0.80
2018-12-04T06:24:58.925Z,-0.70
2018-12-04T06:27:31.014Z,-0.70
2018-12-04T06:30:04.878Z,-0.70
2018-12-04T06:32:37.003Z,-0.60
2018-12-04T06:35:09.312Z,-0.60
2018-12-04T06:37:42.422Z,-0.50
2018-12-04T06:40:14.342Z,-0.50
2018-12-04T06:42:46.690Z,-0.50
2018-12-04T06:45:18.913Z,-0.50
2018-12-04T06:47:51.257Z,-0.50
2018-12-04T06:50:23.356Z,-0.40
2018-12-04T06:52:56.885Z,-0.30
2018-12-04T06:55:28.998Z,-0.30
2018-12-04T06:58:01.221Z,-0.30
2018-12-04T07:00:34.298Z,-0.30
2018-12-04T07:03:06.440Z,-0.20
2018-12-04T07:05:38.691Z,-0.10
2018-12-04T07:08:10.870Z,0.00
2018-12-04T07:10:42.875Z,0.10
2018-12-04T07:13:14.931Z,0.20
2018-12-04T07:15:47.428Z,0.20
2018-12-04T07:18:19.507Z,0.30
2018-12-04T07:20:51.210Z,0.40
2018-12-04T07:23:23.782Z,0.50
2018-12-04T07:25:56.683Z,0.50
2018-12-04T07:28:28.864Z,0.60
2018-12-04T07:31:01.006Z,0.70
2018-12-04T07:33:32.988Z,0.80
2018-12-04T07:36:05.273Z,1.00
2018-12-04T07:38:37.252Z,1.10
2018-12-04T07:41:10.295Z,1.20
2018-12-04T07:43:42.574Z,1.20
2018-12-04T07:46:14.948Z,1.30
2018-12-04T07:48:46.813Z,1.30
2018-12-04T07:51:19.753Z,1.40
2018-12-04T07:53:53.892Z,1.50
2018-12-04T07:56:26.268Z,1.50
2018-12-04T07:58:58.477Z,1.60
2018-12-04T08:01:30.402Z,1.60
2018-12-04T08:04:02.659Z,1.60
2018-12-04T08:06:34.624Z,1.60
2018-12-04T08:09:09.991Z,1.60
2018-12-04T08:11:42.672Z,1.60
2018-12-04T08:14:14.874Z,1.60
2018-12-04T08:16:47.156Z,1.70
2018-12-04T08:19:19.330Z,1.70
2018-12-04T08:21:51.949Z,1.80
2018-12-04T08:24:24.955Z,1.90
2018-12-04T08:26:57.057Z,2.00
2018-12-04T08:29:29.592Z,2.10
2018-12-04T08:32:01.719Z,2.20
2018-12-04T08:34:33.799Z,2.20
2018-12-04T08:37:06.290Z,2.20
2018-12-04T08:39:38.388Z,2.20
2018-12-04T08:42:11.218Z,2.30
2018-12-04T08:44:43.689Z,2.30
2018-12-04T08:47:15.978Z,2.30
2018-12-04T08:49:48.238Z,2.20
2018-12-04T08:52:20.650Z,2.10
2018-12-04T08:54:52.874Z,2.10
2018-12-04T08:57:25.788Z,2.00
2018-12-04T08:59:58.879Z,2.00
2018-12-04T09:02:32.423Z,2.10
2018-12-04T09:05:04.792Z,2.10
2018-12-04T09:07:37.075Z,2.10
2018-12-04T09:10:09.248Z,2.10
2018-12-04T09:12:41.702Z,2.10
2018-12-04T09:15:13.993Z,2.10
2018-12-04T09:17:47.316Z,2.10
2018-12-04T09:20:20.042Z,2.10
2018-12-04T09:22:52.282Z,2.10
2018-12-04T09:25:25.099Z,2.10
2018-12-04T09:27:57.216Z,2.30
2018-12-04T09:30:29.756Z,2.40
2018-12-04T09:33:02.171Z,2.50
2018-12-04T09:35:34.235Z,2.60
2018-12-04T09:38:06.254Z,2.70
2018-12-04T09:40:38.325Z,2.70
2018-12-04T09:43:10.338Z,2.70
2018-12-04T09:45:42.806Z,2.80
2018-12-04T09:48:15.124Z,2.70
2018-12-04T09:50:47.207Z,2.70
2018-12-04T09:53:25.099Z,2.70
2018-12-04T09:55:53.617Z,2.70
2018-12-04T09:58:25.883Z,2.70
2018-12-04T10:00:57.824Z,2.70
2018-12-04T10:03:29.893Z,2.80
2018-12-04T10:06:02.115Z,2.80
2018-12-04T10:08:34.399Z,2.80
2018-12-04T10:11:06.671Z,2.80
2018-12-04T10:13:38.696Z,2.80
2018-12-04T10:16:11.550Z,2.80
2018-12-04T10:18:47.661Z,2.70
2018-12-04T10:21:17.423Z,2.60
2018-12-04T10:23:49.291Z,2.70
2018-12-04T10:26:21.604Z,2.70
2018-12-04T10:28:53.837Z,2.60
2018-12-04T10:31:27.044Z,2.70
2018-12-04T10:34:00.274Z,2.80
2018-12-04T10:36:33.555Z,2.90
2018-12-04T10:39:07.727Z,3.00
2018-12-04T10:41:39.552Z,3.10
2018-12-04T10:44:11.774Z,3.10
2018-12-04T10:46:43.825Z,3.20
2018-12-04T10:49:16.204Z,3.20
2018-12-04T10:51:48.424Z,3.30
2018-12-04T10:54:20.727Z,3.30
2018-12-04T10:56:52.998Z,3.40
2018-12-04T10:59:25.309Z,3.30
2018-12-04T11:02:02.255Z,3.40
2018-12-04T11:04:34.497Z,3.40
2018-12-04T11:07:07.069Z,3.40
2018-12-04T11:09:39.575Z,3.40
2018-12-04T11:12:12.355Z,3.40
2018-12-04T11:14:45.384Z,3.40
2018-12-04T11:17:17.709Z,3.40
2018-12-04T11:19:50.546Z,3.40
2018-12-04T11:22:22.798Z,3.40
2018-12-04T11:24:55.253Z,3.40
2018-12-04T11:27:27.425Z,3.40
2018-12-04T11:29:59.834Z,3.40
2018-12-04T11:32:32.337Z,3.40
2018-12-04T11:35:04.545Z,3.40
2018-12-04T11:37:36.653Z,3.40
2018-12-04T11:40:09.451Z,3.40
2018-12-04T11:42:42.234Z,3.40
2018-12-04T11:45:14.451Z,3.40
2018-12-04T11:47:48.239Z,3.40
2018-12-04T11:50:20.765Z,3.40
2018-12-04T11:52:53.200Z,3.40
2018-12-04T11:55:25.528Z,3.40
2018-12-04T11:57:58.268Z,3.40
2018-12-04T12:00:35.186Z,3.40
2018-12-04T12:03:07.115Z,3.40
2018-12-04T12:05:39.405Z,3.40
2018-12-04T12:08:11.511Z,3.40
2018-12-04T12:10:43.705Z,3.30
2018-12-04T12:13:15.833Z,3.30
2018-12-04T12:15:48.048Z,3.40
2018-12-04T12:18:20.218Z,3.40
2018-12-04T12:20:52.654Z,3.40
2018-12-04T12:23:25.756Z,3.30
2018-12-04T12:25:57.752Z,3.30
2018-12-04T12:28:30.042Z,3.20
2018-12-04T12:31:02.492Z,3.20
2018-12-04T12:33:34.902Z,3.20
2018-12-04T12:36:07.620Z,3.20
2018-12-04T12:38:39.858Z,3.20
2018-12-04T12:41:12.503Z,3.20
2018-12-04T12:43:44.932Z,3.20
2018-12-04T12:46:17.414Z,3.20
2018-12-04T12:48:49.995Z,3.20
2018-12-04T12:51:22.331Z,3.10
2018-12-04T12:53:55.442Z,3.10
2018-12-04T12:56:27.529Z,3.00
2018-12-04T12:58:59.710Z,3.00
2018-12-04T13:01:32.293Z,3.00
2018-12-04T13:04:04.934Z,2.90
2018-12-04T13:06:37.293Z,3.00
2018-12-04T13:09:11.165Z,3.00
2018-12-04T13:11:43.804Z,3.10
2018-12-04T13:14:15.934Z,3.20
2018-12-04T13:16:48.227Z,3.20
2018-12-04T13:19:20.606Z,3.20
2018-12-04T13:21:52.827Z,3.20
2018-12-04T13:24:24.971Z,3.20
2018-12-04T13:26:56.902Z,3.30
2018-12-04T13:29:29.852Z,3.30
2018-12-04T13:32:02.633Z,3.30
2018-12-04T13:34:34.713Z,3.30
2018-12-04T13:37:07.092Z,3.30
2018-12-04T13:39:39.547Z,3.30
2018-12-04T13:42:11.854Z,3.30
2018-12-04T13:44:43.837Z,3.30
2018-12-04T13:47:17.218Z,3.30
2018-12-04T13:49:49.420Z,3.30
2018-12-04T13:52:21.967Z,3.30
2018-12-04T13:54:56.637Z,3.30
2018-12-04T13:57:29.005Z,3.20
2018-12-04T14:00:02.118Z,3.20
2018-12-04T14:02:34.922Z,3.10
2018-12-04T14:05:09.198Z,3.10
2018-12-04T14:07:43.226Z,3.10
2018-12-04T14:10:15.499Z,3.00
2018-12-04T14:12:48.566Z,3.00
2018-12-04T14:15:20.952Z,3.00
2018-12-04T14:17:54.033Z,3.00
2018-12-04T14:20:27.401Z,3.00
2018-12-04T14:23:00.067Z,3.00
2018-12-04T14:25:32.549Z,2.90
2018-12-04T14:28:06.232Z,2.90
2018-12-04T14:30:38.885Z,2.90
2018-12-04T14:33:11.624Z,2.90
2018-12-04T14:35:44.027Z,2.90
2018-12-04T14:38:16.276Z,2.80
2018-12-04T14:40:48.512Z,2.80
2018-12-04T14:43:20.876Z,2.80
2018-12-04T14:45:52.965Z,2.70
2018-12-04T14:48:25.250Z,2.70
2018-12-04T14:50:57.711Z,2.70
2018-12-04T14:53:30.241Z,2.60
2018-12-04T14:56:02.650Z,2.60
2018-12-04T14:58:35.312Z,2.60
2018-12-04T15:01:07.801Z,2.60
2018-12-04T15:03:41.057Z,2.60
2018-12-04T15:06:13.164Z,2.50
2018-12-04T15:08:45.131Z,2.50
2018-12-04T15:11:18.133Z,2.40
2018-12-04T15:13:51.196Z,2.40
2018-12-04T15:16:24.055Z,2.40
2018-12-04T15:18:56.621Z,2.40
2018-12-04T15:21:28.665Z,2.30
2018-12-04T15:24:00.734Z,2.30
2018-12-04T15:26:32.703Z,2.20
2018-12-04T15:29:05.300Z,2.20
2018-12-04T15:31:37.838Z,2.20
2018-12-04T15:34:10.198Z,2.20
2018-12-04T15:36:42.499Z,2.20
2018-12-04T15:39:15.287Z,2.20
2018-12-04T15:41:47.568Z,2.20
2018-12-04T15:44:20.536Z,2.10
2018-12-04T15:46:52.835Z,2.10
2018-12-04T15:49:25.436Z,2.10
2018-12-04T15:51:57.593Z,2.20
2018-12-04T15:54:30.592Z,2.20
2018-12-04T15:57:02.865Z,2.20
2018-12-04T15:59:36.901Z,2.20
2018-12-04T16:02:10.013Z,2.20
2018-12-04T16:04:42.577Z,2.10
2018-12-04T16:07:15.633Z,2.10
2018-12-04T16:09:48.393Z,2.10
2018-12-04T16:12:21.094Z,2.10
2018-12-04T16:14:53.133Z,2.10
2018-12-04T16:17:25.548Z,2.10
2018-12-04T16:19:58.269Z,2.10
2018-12-04T16:22:30.988Z,2.10
2018-12-04T16:25:03.594Z,2.10
2018-12-04T16:27:35.505Z,2.10
2018-12-04T16:30:10.332Z,2.00
2018-12-04T16:32:43.094Z,2.00
2018-12-04T16:35:15.348Z,2.00
2018-12-04T16:37:47.673Z,2.00
2018-12-04T16:40:20.052Z,2.10
2018-12-04T16:42:52.477Z,2.10
2018-12-04T16:45:26.030Z,2.10
2018-12-04T16:47:58.949Z,2.10
2018-12-04T16:50:31.428Z,2.10
2018-12-04T16:53:03.865Z,2.10
2018-12-04T16:55:36.556Z,2.10
2018-12-04T16:58:09.053Z,2.10
2018-12-04T17:00:41.778Z,2.10
2018-12-04T17:03:14.197Z,2.00
2018-12-04T17:05:47.651Z,2.00
2018-12-04T17:08:19.796Z,2.00
2018-12-04T17:10:51.902Z,2.00
2018-12-04T17:13:24.577Z,2.00
2018-12-04T17:15:57.567Z,2.00
2018-12-04T17:18:37.445Z,2.00
2018-12-04T17:21:05.395Z,2.00
2018-12-04T17:23:38.754Z,2.00
2018-12-04T17:26:10.853Z,2.00
2018-12-04T17:28:43.435Z,2.00
2018-12-04T17:31:15.882Z,2.00
2018-12-04T17:33:48.929Z,1.90
2018-12-04T17:36:21.732Z,2.00
2018-12-04T17:38:54.043Z,2.00
2018-12-04T17:41:25.716Z,2.00
2018-12-04T17:43:58.034Z,2.00
2018-12-04T17:46:30.186Z,2.00
2018-12-04T17:49:02.419Z,2.00
2018-12-04T17:51:35.371Z,2.00
2018-12-04T17:54:08.106Z,2.00
2018-12-04T17:56:41.268Z,2.00
2018-12-04T17:59:14.484Z,2.00
2018-12-04T18:01:46.547Z,2.00
2018-12-04T18:04:18.697Z,2.00
2018-12-04T18:06:50.757Z,1.90
2018-12-04T18:09:23.174Z,2.00
2018-12-04T18:11:54.913Z,2.00
2018-12-04T18:14:27.701Z,2.00
2018-12-04T18:17:00.152Z,2.00
2018-12-04T18:19:32.384Z,2.00
2018-12-04T18:22:04.803Z,2.00
2018-12-04T18:24:36.981Z,2.00
2018-12-04T18:27:09.396Z,2.00
2018-12-04T18:29:42.107Z,2.00
2018-12-04T18:32:14.219Z,2.00
2018-12-04T18:34:46.922Z,2.00
2018-12-04T18:37:19.440Z,2.00
2018-12-04T18:39:53.058Z,2.00
2018-12-04T18:42:25.258Z,2.00
2018-12-04T18:44:57.742Z,2.00
2018-12-04T18:47:29.979Z,2.00
2018-12-04T18:50:02.349Z,2.00
2018-12-04T18:52:34.646Z,2.00
2018-12-04T18:55:07.745Z,2.00
2018-12-04T18:57:41.603Z,2.00
2018-12-04T19:00:13.981Z,2.00
2018-12-04T19:02:46.682Z,2.00
2018-12-04T19:05:18.902Z,2.00
2018-12-04T19:07:51.590Z,2.00
2018-12-04T19:10:23.800Z,2.10
2018-12-04T19:12:57.332Z,2.10
2018-12-04T19:15:29.562Z,2.10
2018-12-04T19:18:01.711Z,2.20
2018-12-04T19:20:34.496Z,2.10
2018-12-04T19:23:07.789Z,2.10
2018-12-04T19:25:40.590Z,2.10
2018-12-04T19:28:13.649Z,2.10
2018-12-04T19:30:47.497Z,2.10
2018-12-04T19:33:20.171Z,2.10
2018-12-04T19:35:52.545Z,2.10
2018-12-04T19:38:26.046Z,2.10
2018-12-04T19:40:59.652Z,2.10
2018-12-04T19:43:33.061Z,2.10
2018-12-04T19:46:05.905Z,2.10
2018-12-04T19:48:38.862Z,2.10
2018-12-04T19:51:11.746Z,2.10
2018-12-04T19:53:44.938Z,2.10
2018-12-04T19:56:17.328Z,2.10
2018-12-04T19:58:49.822Z,2.10
2018-12-04T20:01:22.450Z,2.10
2018-12-04T20:03:55.103Z,2.10
2018-12-04T20:06:27.259Z,2.10
2018-12-04T20:09:02.698Z,2.10
2018-12-04T20:11:34.773Z,2.20
2018-12-04T20:14:07.965Z,2.20
2018-12-04T20:16:40.221Z,2.20
2018-12-04T20:19:12.530Z,2.10
2018-12-04T20:21:45.736Z,2.20
2018-12-04T20:24:19.630Z,2.20
2018-12-04T20:26:51.901Z,2.20
2018-12-04T20:29:24.474Z,2.20
2018-12-04T20:31:57.364Z,2.20
2018-12-04T20:34:31.017Z,2.20
2018-12-04T20:37:04.287Z,2.20
2018-12-04T20:39:36.712Z,2.20
2018-12-04T20:42:09.522Z,2.20
2018-12-04T20:44:43.299Z,2.10
2018-12-04T20:47:15.741Z,2.20
2018-12-04T20:49:47.905Z,2.20
2018-12-04T20:52:20.435Z,2.20
2018-12-04T20:54:53.024Z,2.20
2018-12-04T20:57:25.267Z,2.20
2018-12-04T20:59:57.807Z,2.20
2018-12-04T21:02:30.937Z,2.20
2018-12-04T21:05:03.159Z,2.20
2018-12-04T21:07:35.689Z,2.20
2018-12-04T21:10:08.207Z,2.20
2018-12-04T21:12:40.809Z,2.20
2018-12-04T21:15:13.101Z,2.20
2018-12-04T21:17:45.409Z,2.20
2018-12-04T21:20:18.309Z,2.20
2018-12-04T21:22:50.819Z,2.20
2018-12-04T21:25:24.422Z,2.20
2018-12-04T21:28:01.855Z,2.20
2018-12-04T21:30:38.992Z,2.20
2018-12-04T21:33:16.388Z,2.20
2018-12-04T21:35:53.842Z,2.10
2018-12-04T21:38:30.977Z,2.10
2018-12-04T21:41:08.648Z,2.10
2018-12-04T21:43:45.932Z,2.10
2018-12-04T21:46:23.164Z,2.10
2018-12-04T21:48:56.364Z,2.10
2018-12-04T21:51:28.964Z,2.10
2018-12-04T21:54:01.128Z,2.10
2018-12-04T21:56:33.367Z,2.10
2018-12-04T21:59:06.515Z,2.10
2018-12-04T22:01:38.849Z,2.10
2018-12-04T22:04:10.857Z,2.10
2018-12-04T22:06:43.014Z,2.10
2018-12-04T22:09:15.217Z,2.10
2018-12-04T22:11:49.046Z,2.10
2018-12-04T22:14:21.377Z,2.10
2018-12-04T22:16:54.113Z,2.10
2018-12-04T22:19:26.411Z,2.10
2018-12-04T22:21:58.514Z,2.10
2018-12-04T22:24:30.639Z,2.10
2018-12-04T22:27:02.648Z,2.20
2018-12-04T22:29:34.551Z,2.20
2018-12-04T22:32:08.008Z,2.20
2018-12-04T22:34:40.242Z,2.20
2018-12-04T22:37:12.622Z,2.20
2018-12-04T22:39:44.774Z,2.20
2018-12-04T22:42:16.974Z,2.20
2018-12-04T22:44:49.184Z,2.20
2018-12-04T22:47:21.364Z,2.20
2018-12-04T22:49:53.496Z,2.20
2018-12-04T22:52:26.019Z,2.20
2018-12-04T22:54:58.256Z,2.20
2018-12-04T22:57:30.318Z,2.20
2018-12-04T23:00:04.115Z,2.30
2018-12-04T23:02:36.713Z,2.30
2018-12-04T23:05:09.145Z,2.30
2018-12-04T23:07:42.505Z,2.30
2018-12-04T23:10:14.867Z,2.30
2018-12-04T23:12:46.842Z,2.30
2018-12-04T23:15:19.050Z,2.30
2018-12-04T23:17:51.668Z,2.30
2018-12-04T23:20:23.706Z,2.30
2018-12-04T23:22:55.869Z,2.30
2018-12-04T23:25:28.162Z,2.30
2018-12-04T23:28:00.504Z,2.30
2018-12-04T23:30:32.743Z,2.30
2018-12-04T23:33:05.014Z,2.20
2018-12-04T23:35:37.154Z,2.20
2018-12-04T23:38:09.293Z,2.20
2018-12-04T23:40:41.847Z,2.30
2018-12-04T23:43:14.443Z,2.30
2018-12-04T23:45:46.934Z,2.30
2018-12-04T23:48:18.999Z,2.30
2018-12-04T23:50:51.071Z,2.30
2018-12-04T23:53:23.312Z,2.30
2018-12-04T23:55:56.009Z,2.30
2018-12-04T23:58:28.305Z,2.30
